createdAt,value
2022-11-09T00:00:16.344Z,13.50
2022-11-09T00:02:44.080Z,13.50
2022-11-09T00:05:10.952Z,13.50
2022-11-09T00:07:37.714Z,13.40
2022-11-09T00:10:04.725Z,13.50
2022-11-09T00:12:32.074Z,13.50
2022-11-09T00:14:58.839Z,13.40
2022-11-09T00:17:25.574Z,13.40
2022-11-09T00:19:52.473Z,13.40
2022-11-09T00:22:19.263Z,13.40
2022-11-09T00:24:46.054Z,13.50
2022-11-09T00:27:17.340Z,13.50
2022-11-09T00:29:44.540Z,13.50
2022-11-09T00:32:11.285Z,13.40
2022-11-09T00:34:38.103Z,13.50
2022-11-09T00:37:05.857Z,13.50
2022-11-09T00:39:32.620Z,13.50
2022-11-09T00:41:59.341Z,13.50
2022-11-09T00:44:26.053Z,13.50
2022-11-09T00:46:52.777Z,13.50
2022-11-09T00:49:19.617Z,13.50
2022-11-09T00:51:46.557Z,13.60
2022-11-09T00:54:13.485Z,13.60
2022-11-09T00:56:40.344Z,13.60
2022-11-09T00:59:10.230Z,13.60
2022-11-09T01:01:38.450Z,13.60
2022-11-09T01:04:05.312Z,13.60
2022-11-09T01:06:34.152Z,13.60
2022-11-09T01:09:01.048Z,13.60
2022-11-09T01:11:27.824Z,13.70
2022-11-09T01:13:54.713Z,13.60
2022-11-09T01:16:22.426Z,13.60
2022-11-09T01:18:52.283Z,13.60
2022-11-09T01:21:19.070Z,13.70
2022-11-09T01:23:45.785Z,13.60
2022-11-09T01:26:13.615Z,13.60
2022-11-09T01:28:40.954Z,13.60
2022-11-09T01:31:20.747Z,13.60
2022-11-09T01:33:47.717Z,13.60
2022-11-09T01:36:16.098Z,13.60
2022-11-09T01:38:43.116Z,13.50
2022-11-09T01:41:14.080Z,13.50
2022-11-09T01:43:40.783Z,13.50
2022-11-09T01:46:16.837Z,13.50
2022-11-09T01:48:49.751Z,13.50
2022-11-09T01:51:22.215Z,13.50
2022-11-09T01:53:51.256Z,13.50
2022-11-09T01:56:18.516Z,13.50
2022-11-09T01:58:48.869Z,13.40
2022-11-09T02:01:17.421Z,13.40
2022-11-09T02:03:49.722Z,13.40
2022-11-09T02:06:18.106Z,13.50
2022-11-09T02:08:45.740Z,13.40
2022-11-09T02:11:13.969Z,13.40
2022-11-09T02:14:07.806Z,13.40
2022-11-09T02:16:34.941Z,13.40
2022-11-09T02:19:01.923Z,13.40
2022-11-09T02:21:31.730Z,13.40
2022-11-09T02:24:00.052Z,13.40
2022-11-09T02:26:34.565Z,13.40
2022-11-09T02:29:03.678Z,13.40
2022-11-09T02:31:33.681Z,13.40
2022-11-09T02:34:03.699Z,13.40
2022-11-09T02:36:32.284Z,13.40
2022-11-09T02:39:01.256Z,13.40
2022-11-09T02:41:30.387Z,13.40
2022-11-09T02:43:57.931Z,13.40
2022-11-09T02:46:26.220Z,13.40
2022-11-09T02:48:52.956Z,13.40
2022-11-09T02:51:19.884Z,13.40
2022-11-09T02:53:46.812Z,13.40
2022-11-09T02:56:13.923Z,13.40
2022-11-09T02:58:40.729Z,13.40
2022-11-09T03:01:07.851Z,13.40
2022-11-09T03:03:36.579Z,13.40
2022-11-09T03:06:03.874Z,13.40
2022-11-09T03:08:32.026Z,13.40
2022-11-09T03:11:02.463Z,13.40
2022-11-09T03:13:29.657Z,13.50
2022-11-09T03:15:56.456Z,13.50
2022-11-09T03:18:23.240Z,13.50
2022-11-09T03:20:50.115Z,13.50
2022-11-09T03:23:18.080Z,13.50
2022-11-09T03:25:45.965Z,13.50
2022-11-09T03:28:12.903Z,13.50
2022-11-09T03:30:40.579Z,13.50
2022-11-09T03:33:10.204Z,13.50
2022-11-09T03:35:38.061Z,13.50
2022-11-09T03:38:05.350Z,13.50
2022-11-09T03:40:32.156Z,13.50
2022-11-09T03:42:59.017Z,13.50
2022-11-09T03:45:27.916Z,13.50
2022-11-09T03:48:00.172Z,13.50
2022-11-09T03:50:31.432Z,13.50
2022-11-09T03:52:58.746Z,13.40
2022-11-09T03:55:25.995Z,13.40
2022-11-09T03:57:53.033Z,13.40
2022-11-09T04:00:21.001Z,13.40
2022-11-09T04:02:49.455Z,13.30
2022-11-09T04:05:16.556Z,13.30
2022-11-09T04:07:50.601Z,13.30
2022-11-09T04:10:17.952Z,13.30
2022-11-09T04:12:44.710Z,13.30
2022-11-09T04:15:11.542Z,13.30
2022-11-09T04:17:38.304Z,13.40
2022-11-09T04:20:08.568Z,13.40
2022-11-09T04:22:35.312Z,13.40
2022-11-09T04:25:02.127Z,13.40
2022-11-09T04:27:29.965Z,13.40
2022-11-09T04:29:56.706Z,13.40
2022-11-09T04:32:23.745Z,13.40
2022-11-09T04:34:50.491Z,13.40
2022-11-09T04:37:17.227Z,13.30
2022-11-09T04:39:43.968Z,13.30
2022-11-09T04:42:10.662Z,13.30
2022-11-09T04:44:37.764Z,13.30
2022-11-09T04:47:04.567Z,13.30
2022-11-09T04:49:31.416Z,13.30
2022-11-09T04:51:58.363Z,13.30
2022-11-09T04:54:25.080Z,13.30
2022-11-09T04:56:51.872Z,13.30
2022-11-09T04:59:18.887Z,13.30
2022-11-09T05:01:45.806Z,13.30
2022-11-09T05:04:12.625Z,13.30
2022-11-09T05:06:39.550Z,13.30
2022-11-09T05:09:07.034Z,13.30
2022-11-09T05:11:34.461Z,13.30
2022-11-09T05:14:01.630Z,13.30
2022-11-09T05:16:28.840Z,13.30
2022-11-09T05:18:55.613Z,13.30
2022-11-09T05:21:23.461Z,13.30
2022-11-09T05:23:59.494Z,13.30
2022-11-09T05:26:34.313Z,13.30
2022-11-09T05:29:02.431Z,13.40
2022-11-09T05:31:29.504Z,13.40
2022-11-09T05:33:56.308Z,13.40
2022-11-09T05:36:23.441Z,13.40
2022-11-09T05:38:50.250Z,13.40
2022-11-09T05:41:17.376Z,13.40
2022-11-09T05:43:44.892Z,13.50
2022-11-09T05:46:12.424Z,13.40
2022-11-09T05:48:39.218Z,13.50
2022-11-09T05:51:06.622Z,13.50
2022-11-09T05:53:33.558Z,13.50
2022-11-09T05:56:04.894Z,13.40
2022-11-09T05:58:33.142Z,13.50
2022-11-09T06:01:34.368Z,13.50
2022-11-09T06:04:01.107Z,13.50
2022-11-09T06:06:27.909Z,13.40
2022-11-09T06:08:55.290Z,13.50
2022-11-09T06:11:24.311Z,13.50
2022-11-09T06:13:52.202Z,13.50
2022-11-09T06:16:18.993Z,13.50
2022-11-09T06:18:45.823Z,13.40
2022-11-09T06:21:12.781Z,13.50
2022-11-09T06:23:39.551Z,13.50
2022-11-09T06:26:07.682Z,13.50
2022-11-09T06:28:34.795Z,13.50
2022-11-09T06:31:02.891Z,13.50
2022-11-09T06:33:30.759Z,13.50
2022-11-09T06:35:58.127Z,13.50
2022-11-09T06:38:26.540Z,13.50
2022-11-09T06:40:54.047Z,13.50
2022-11-09T06:43:21.618Z,13.50
2022-11-09T06:45:48.924Z,13.50
2022-11-09T06:48:15.756Z,13.40
2022-11-09T06:50:42.518Z,13.40
2022-11-09T06:53:10.634Z,13.40
2022-11-09T06:55:37.618Z,13.40
2022-11-09T06:58:11.280Z,13.40
2022-11-09T07:00:38.325Z,13.30
2022-11-09T07:03:05.948Z,13.30
2022-11-09T07:05:33.065Z,13.30
2022-11-09T07:08:00.723Z,13.30
2022-11-09T07:10:27.599Z,13.30
2022-11-09T07:12:57.228Z,13.30
2022-11-09T07:15:26.479Z,13.30
2022-11-09T07:17:56.425Z,13.30
2022-11-09T07:20:23.150Z,13.30
2022-11-09T07:22:50.806Z,13.30
2022-11-09T07:25:18.166Z,13.30
2022-11-09T07:27:44.934Z,13.30
2022-11-09T07:30:11.909Z,13.30
2022-11-09T07:33:08.720Z,13.30
2022-11-09T07:35:26.712Z,13.30
2022-11-09T07:37:53.508Z,13.20
2022-11-09T07:40:20.528Z,13.20
2022-11-09T07:42:47.170Z,13.20
2022-11-09T07:45:14.059Z,13.20
2022-11-09T07:47:40.859Z,13.20
2022-11-09T07:50:07.671Z,13.20
2022-11-09T07:52:34.446Z,13.30
2022-11-09T07:55:01.160Z,13.30
2022-11-09T07:57:27.896Z,13.30
2022-11-09T07:59:54.856Z,13.30
2022-11-09T08:02:21.829Z,13.30
2022-11-09T08:04:48.603Z,13.30
2022-11-09T08:07:15.379Z,13.30
2022-11-09T08:09:42.361Z,13.40
2022-11-09T08:12:09.064Z,13.40
2022-11-09T08:14:35.746Z,13.40
2022-11-09T08:17:02.549Z,13.30
2022-11-09T08:19:29.259Z,13.40
2022-11-09T08:21:57.809Z,13.40
2022-11-09T08:24:24.554Z,13.40
2022-11-09T08:26:51.390Z,13.40
2022-11-09T08:29:18.338Z,13.40
2022-11-09T08:31:45.182Z,13.40
2022-11-09T08:34:13.976Z,13.50
2022-11-09T08:36:41.067Z,13.50
2022-11-09T08:39:08.143Z,13.50
2022-11-09T08:41:35.019Z,13.50
2022-11-09T08:44:02.009Z,13.60
2022-11-09T08:46:29.021Z,13.60
2022-11-09T08:48:55.685Z,13.60
2022-11-09T08:51:22.605Z,13.70
2022-11-09T08:53:49.389Z,13.70
2022-11-09T08:56:18.680Z,13.60
2022-11-09T08:58:45.856Z,13.70
2022-11-09T09:01:16.941Z,13.70
2022-11-09T09:03:44.638Z,13.70
2022-11-09T09:06:11.305Z,13.70
2022-11-09T09:08:38.020Z,13.80
2022-11-09T09:11:05.341Z,13.80
2022-11-09T09:13:32.335Z,13.80
2022-11-09T09:16:08.407Z,13.80
2022-11-09T09:18:35.158Z,13.90
2022-11-09T09:21:04.944Z,13.90
2022-11-09T09:23:31.709Z,13.90
2022-11-09T09:25:58.888Z,14.00
2022-11-09T09:28:25.628Z,14.00
2022-11-09T09:30:53.264Z,14.00
2022-11-09T09:33:20.009Z,14.00
2022-11-09T09:35:46.740Z,14.10
2022-11-09T09:38:13.403Z,14.00
2022-11-09T09:40:52.377Z,14.00
2022-11-09T09:43:31.228Z,14.10
2022-11-09T09:45:59.120Z,14.10
2022-11-09T09:48:31.556Z,14.10
2022-11-09T09:51:10.177Z,14.20
2022-11-09T09:53:41.131Z,14.20
2022-11-09T09:56:18.199Z,14.20
2022-11-09T09:58:47.396Z,14.30
2022-11-09T10:01:16.328Z,14.30
2022-11-09T10:03:43.063Z,14.20
2022-11-09T10:06:28.601Z,14.30
2022-11-09T10:09:14.270Z,14.30
2022-11-09T10:11:44.039Z,14.30
2022-11-09T10:14:40.401Z,14.30
2022-11-09T10:17:29.464Z,14.30
2022-11-09T10:20:01.537Z,14.40
2022-11-09T10:22:28.375Z,14.40
2022-11-09T10:27:54.189Z,14.40
2022-11-09T10:30:21.930Z,14.50
2022-11-09T10:32:50.216Z,14.50
2022-11-09T10:35:16.903Z,14.40
2022-11-09T10:37:46.477Z,14.40
2022-11-09T10:40:19.406Z,14.40
2022-11-09T10:43:08.862Z,14.50
2022-11-09T10:46:05.631Z,14.50
2022-11-09T10:48:51.614Z,14.50
2022-11-09T10:51:48.023Z,14.60
2022-11-09T10:54:35.479Z,14.60
2022-11-09T10:57:22.923Z,14.60
2022-11-09T11:00:19.298Z,14.50
2022-11-09T11:03:15.981Z,14.50
2022-11-09T11:06:02.800Z,14.50
2022-11-09T11:08:49.399Z,14.60
2022-11-09T11:11:37.202Z,14.60
2022-11-09T11:14:23.510Z,14.60
2022-11-09T11:17:22.246Z,14.60
2022-11-09T11:20:26.653Z,14.60
2022-11-09T11:23:22.506Z,14.60
2022-11-09T11:26:20.609Z,14.60
2022-11-09T11:29:21.411Z,14.60
2022-11-09T11:32:11.942Z,14.60
2022-11-09T11:35:00.634Z,14.70
2022-11-09T11:37:49.760Z,14.70
2022-11-09T11:40:40.341Z,14.70
2022-11-09T11:43:25.882Z,14.70
2022-11-09T11:46:20.175Z,14.60
2022-11-09T11:49:05.641Z,14.60
2022-11-09T11:51:53.934Z,14.60
2022-11-09T11:54:59.474Z,14.70
2022-11-09T11:57:44.914Z,14.70
2022-11-09T12:00:32.076Z,14.70
2022-11-09T12:03:36.580Z,14.70
2022-11-09T12:06:26.600Z,14.70
2022-11-09T12:09:18.444Z,14.70
2022-11-09T12:12:11.681Z,14.70
2022-11-09T12:15:06.143Z,14.80
2022-11-09T12:17:55.658Z,14.80
2022-11-09T12:20:53.722Z,14.80
2022-11-09T12:23:43.535Z,14.80
2022-11-09T12:26:31.905Z,14.80
2022-11-09T12:29:21.924Z,14.90
2022-11-09T12:32:20.300Z,14.80
2022-11-09T12:35:08.747Z,14.80
2022-11-09T12:38:01.989Z,14.80
2022-11-09T12:40:54.190Z,14.80
2022-11-09T12:43:39.727Z,14.80
2022-11-09T12:46:27.986Z,14.80
2022-11-09T12:49:27.477Z,14.80
2022-11-09T12:52:14.451Z,14.80
2022-11-09T12:55:16.523Z,14.80
2022-11-09T12:58:01.997Z,14.80
2022-11-09T13:00:48.583Z,14.90
2022-11-09T13:03:36.774Z,14.90
2022-11-09T13:06:24.974Z,14.90
2022-11-09T13:09:13.458Z,14.90
2022-11-09T13:11:58.819Z,14.90
2022-11-09T13:14:45.309Z,14.90
2022-11-09T13:17:31.054Z,14.80
2022-11-09T13:24:00.639Z,14.80
2022-11-09T13:26:46.521Z,14.80
2022-11-09T13:29:39.178Z,14.80
2022-11-09T13:32:25.758Z,14.80
2022-11-09T13:35:31.303Z,14.80
2022-11-09T13:38:21.041Z,14.80
2022-11-09T13:41:25.454Z,14.80
2022-11-09T13:44:13.916Z,14.80
2022-11-09T13:46:59.713Z,14.80
2022-11-09T13:49:47.068Z,14.80
2022-11-09T13:52:48.318Z,14.80
2022-11-09T13:55:38.218Z,14.90
2022-11-09T13:58:33.519Z,14.90
2022-11-09T14:01:30.456Z,14.90
2022-11-09T14:04:21.802Z,14.90
2022-11-09T14:07:11.980Z,14.90
2022-11-09T14:10:16.806Z,14.80
2022-11-09T14:13:11.268Z,14.80
2022-11-09T14:15:56.793Z,14.70
2022-11-09T14:18:42.432Z,14.70
2022-11-09T14:21:44.360Z,14.70
2022-11-09T14:24:32.735Z,14.60
2022-11-09T14:27:19.761Z,14.60
2022-11-09T14:30:13.533Z,14.60
2022-11-09T14:32:59.276Z,14.60
2022-11-09T14:35:44.906Z,14.60
2022-11-09T14:38:35.455Z,14.60
2022-11-09T14:41:24.473Z,14.60
2022-11-09T14:44:15.637Z,14.60
2022-11-09T14:47:01.701Z,14.50
2022-11-09T14:49:47.080Z,14.50
2022-11-09T14:52:32.240Z,14.60
2022-11-09T14:55:18.339Z,14.60
2022-11-09T14:58:03.661Z,14.60
2022-11-09T15:01:09.454Z,14.60
2022-11-09T15:04:13.175Z,14.60
2022-11-09T15:07:00.702Z,14.50
2022-11-09T15:09:50.130Z,14.50
2022-11-09T15:12:36.000Z,14.50
2022-11-09T15:15:24.961Z,14.50
2022-11-09T15:18:19.348Z,14.40
2022-11-09T15:21:23.732Z,14.40
2022-11-09T15:24:08.888Z,14.40
2022-11-09T15:26:55.769Z,14.40
2022-11-09T15:29:42.089Z,14.40
2022-11-09T15:32:27.551Z,14.30
2022-11-09T15:35:15.044Z,14.30
2022-11-09T15:38:00.621Z,14.30
2022-11-09T15:40:45.782Z,14.30
2022-11-09T15:43:31.443Z,14.30
2022-11-09T15:46:24.527Z,14.30
2022-11-09T15:49:15.379Z,14.20
2022-11-09T15:52:01.399Z,14.20
2022-11-09T15:54:47.016Z,14.10
2022-11-09T15:57:32.349Z,14.10
2022-11-09T16:00:20.923Z,14.10
2022-11-09T16:03:07.211Z,14.10
2022-11-09T16:05:52.764Z,14.10
2022-11-09T16:08:38.263Z,14.00
2022-11-09T16:11:23.556Z,14.00
2022-11-09T16:14:08.922Z,14.00
2022-11-09T16:16:54.007Z,14.10
2022-11-09T16:19:39.747Z,14.10
2022-11-09T16:22:29.282Z,14.00
2022-11-09T16:25:14.962Z,14.10
2022-11-09T16:28:00.441Z,14.10
2022-11-09T16:30:47.000Z,14.00
2022-11-09T16:33:32.787Z,13.90
2022-11-09T16:36:20.204Z,13.90
2022-11-09T16:39:06.756Z,13.80
2022-11-09T16:41:53.087Z,13.80
2022-11-09T16:44:39.785Z,13.80
2022-11-09T16:47:24.922Z,13.80
2022-11-09T16:50:10.481Z,13.80
2022-11-09T16:52:55.993Z,13.80
2022-11-09T16:55:42.554Z,13.80
2022-11-09T16:58:28.023Z,13.70
2022-11-09T17:01:15.484Z,13.70
2022-11-09T17:04:04.359Z,13.60
2022-11-09T17:06:50.255Z,13.60
2022-11-09T17:09:35.570Z,13.60
2022-11-09T17:12:21.120Z,13.70
2022-11-09T17:15:07.035Z,13.70
2022-11-09T17:17:52.461Z,13.60
2022-11-09T17:20:44.864Z,13.60
2022-11-09T17:23:31.453Z,13.60
2022-11-09T17:26:17.913Z,13.60
2022-11-09T17:29:04.580Z,13.60
2022-11-09T17:31:51.057Z,13.60
2022-11-09T17:34:36.794Z,13.60
2022-11-09T17:37:22.727Z,13.60
2022-11-09T17:40:08.389Z,13.60
2022-11-09T17:42:54.216Z,13.60
2022-11-09T17:45:39.822Z,13.50
2022-11-09T17:48:25.117Z,13.50
2022-11-09T17:51:10.976Z,13.50
2022-11-09T17:53:57.936Z,13.40
2022-11-09T17:56:43.535Z,13.40
2022-11-09T17:59:29.361Z,13.40
2022-11-09T18:02:15.765Z,13.40
2022-11-09T18:05:01.220Z,13.40
2022-11-09T18:07:46.879Z,13.40
2022-11-09T18:10:32.562Z,13.30
2022-11-09T18:13:18.622Z,13.30
2022-11-09T18:16:05.127Z,13.30
2022-11-09T18:18:50.711Z,13.30
2022-11-09T18:21:35.953Z,13.30
2022-11-09T18:24:21.484Z,13.20
2022-11-09T18:27:06.814Z,13.20
2022-11-09T18:29:52.452Z,13.10
2022-11-09T18:32:38.039Z,13.20
2022-11-09T18:35:24.608Z,13.10
2022-11-09T18:38:13.255Z,13.10
2022-11-09T18:41:03.647Z,13.10
2022-11-09T18:43:49.735Z,13.10
2022-11-09T18:46:35.481Z,13.10
2022-11-09T18:49:20.844Z,13.10
2022-11-09T18:52:06.192Z,13.00
2022-11-09T18:54:51.893Z,13.00
2022-11-09T18:57:37.388Z,13.00
2022-11-09T19:00:22.491Z,13.00
2022-11-09T19:03:12.647Z,12.90
2022-11-09T19:05:57.829Z,12.90
2022-11-09T19:09:01.877Z,12.90
2022-11-09T19:11:47.574Z,12.90
2022-11-09T19:14:33.768Z,12.90
2022-11-09T19:17:19.249Z,12.80
2022-11-09T19:20:04.894Z,12.70
2022-11-09T19:22:50.289Z,12.70
2022-11-09T19:34:14.439Z,12.70
2022-11-09T19:39:48.642Z,12.70
2022-11-09T19:42:38.060Z,12.60
2022-11-09T19:45:31.284Z,12.60
2022-11-09T19:48:16.805Z,12.60
2022-11-09T19:51:06.200Z,12.60
2022-11-09T19:53:57.462Z,12.60
2022-11-09T19:56:43.138Z,12.60
2022-11-09T19:59:28.816Z,12.60
2022-11-09T20:02:13.967Z,12.60
2022-11-09T20:04:59.346Z,12.60
2022-11-09T20:07:45.065Z,12.60
2022-11-09T20:10:30.351Z,12.50
2022-11-09T20:13:19.126Z,12.50
2022-11-09T20:16:07.799Z,12.50
2022-11-09T20:18:59.912Z,12.50
2022-11-09T20:21:47.626Z,12.50
2022-11-09T20:24:42.500Z,12.50
2022-11-09T20:27:32.431Z,12.50
2022-11-09T20:30:27.378Z,12.50
2022-11-09T20:33:15.265Z,12.50
2022-11-09T20:36:04.752Z,12.50
2022-11-09T20:39:05.495Z,12.40
2022-11-09T20:44:56.556Z,12.40
2022-11-09T20:48:05.203Z,12.40
2022-11-09T20:50:53.763Z,12.40
2022-11-09T20:53:39.412Z,12.40
2022-11-09T20:56:25.138Z,12.40
2022-11-09T20:59:12.184Z,12.40
2022-11-09T21:05:56.562Z,12.40
2022-11-09T21:09:31.212Z,12.40
2022-11-09T21:27:03.993Z,12.40
2022-11-09T21:37:10.631Z,12.40
2022-11-09T21:39:56.402Z,12.40
2022-11-09T21:42:43.063Z,12.40
2022-11-09T21:45:28.394Z,12.40
2022-11-09T21:48:14.207Z,12.40
2022-11-09T21:50:59.481Z,12.40
2022-11-09T21:53:45.025Z,12.50
2022-11-09T21:56:30.865Z,12.40
2022-11-09T21:59:17.401Z,12.40
2022-11-09T22:02:03.150Z,12.40
2022-11-09T22:04:49.523Z,12.40
2022-11-09T22:07:34.800Z,12.40
2022-11-09T22:10:20.035Z,12.40
2022-11-09T22:13:28.541Z,12.40
2022-11-09T22:16:16.145Z,12.40
2022-11-09T22:19:27.702Z,12.40
2022-11-09T22:22:14.418Z,12.40
2022-11-09T22:25:00.085Z,12.40
2022-11-09T22:27:45.851Z,12.40
2022-11-09T22:30:31.488Z,12.40
2022-11-09T22:33:21.788Z,12.40
2022-11-09T22:36:10.961Z,12.40
2022-11-09T22:38:56.420Z,12.40
2022-11-09T22:41:41.756Z,12.30
2022-11-09T22:44:27.164Z,12.30
2022-11-09T22:47:13.357Z,12.30
2022-11-09T22:49:58.998Z,12.30
2022-11-09T22:52:44.394Z,12.30
2022-11-09T22:55:31.176Z,12.20
2022-11-09T22:58:18.103Z,12.20
2022-11-09T23:01:05.844Z,12.20
2022-11-09T23:03:52.579Z,12.20
2022-11-09T23:06:39.383Z,12.20
2022-11-09T23:09:25.586Z,12.10
2022-11-09T23:12:15.622Z,12.20
2022-11-09T23:15:06.759Z,12.10
2022-11-09T23:18:11.881Z,12.10
2022-11-09T23:21:02.607Z,12.10
2022-11-09T23:23:48.642Z,12.10
2022-11-09T23:26:34.204Z,12.20
2022-11-09T23:29:19.749Z,12.10
2022-11-09T23:32:05.314Z,12.10
2022-11-09T23:34:51.630Z,12.10
2022-11-09T23:37:37.407Z,12.10
2022-11-09T23:40:22.922Z,12.10
2022-11-09T23:43:10.815Z,12.10
2022-11-09T23:45:58.242Z,12.10
2022-11-09T23:48:43.613Z,12.10
2022-11-09T23:51:29.163Z,12.10
2022-11-09T23:54:14.543Z,12.10
2022-11-09T23:56:59.861Z,12.10
2022-11-09T23:59:45.236Z,12.10
